createdAt,value
2022-10-17T00:00:34.400Z,20.55
2022-10-17T00:01:34.409Z,20.54
2022-10-17T00:02:34.390Z,20.54
2022-10-17T00:03:34.373Z,20.54
2022-10-17T00:05:34.380Z,20.57
2022-10-17T00:06:34.366Z,20.55
2022-10-17T00:07:34.319Z,20.54
2022-10-17T00:08:34.308Z,20.54
2022-10-17T00:09:34.359Z,20.57
2022-10-17T00:10:34.289Z,20.54
2022-10-17T00:11:34.299Z,20.54
2022-10-17T00:12:34.272Z,20.55
2022-10-17T00:13:34.273Z,20.55
2022-10-17T00:15:31.082Z,20.57
2022-10-17T00:16:31.035Z,20.54
2022-10-17T00:17:31.233Z,20.54
2022-10-17T00:18:31.012Z,20.54
2022-10-17T00:19:31.012Z,20.55
2022-10-17T00:20:31.001Z,20.54
2022-10-17T00:21:30.981Z,20.55
2022-10-17T00:22:31.006Z,20.54
2022-10-17T00:23:30.982Z,20.54
2022-10-17T00:24:30.981Z,20.54
2022-10-17T00:25:30.944Z,20.55
2022-10-17T00:26:30.943Z,20.54
2022-10-17T00:27:30.992Z,20.55
2022-10-17T00:28:31.003Z,20.54
2022-10-17T00:29:30.913Z,20.55
2022-10-17T00:30:30.904Z,20.54
2022-10-17T00:31:30.894Z,20.54
2022-10-17T00:32:31.068Z,20.55
2022-10-17T00:33:30.914Z,20.54
2022-10-17T00:34:30.852Z,20.54
2022-10-17T00:35:30.853Z,20.54
2022-10-17T00:36:30.832Z,20.54
2022-10-17T00:37:30.841Z,20.55
2022-10-17T00:38:30.842Z,20.54
2022-10-17T00:39:30.811Z,20.54
2022-10-17T00:40:30.792Z,20.54
2022-10-17T00:41:30.802Z,20.54
2022-10-17T00:42:31.047Z,20.54
2022-10-17T00:43:30.775Z,20.55
2022-10-17T00:44:30.826Z,20.52
2022-10-17T00:45:30.757Z,20.54
2022-10-17T00:46:30.736Z,20.54
2022-10-17T00:47:30.795Z,20.52
2022-10-17T00:48:30.774Z,20.54
2022-10-17T00:49:30.714Z,20.55
2022-10-17T00:50:30.690Z,20.54
2022-10-17T00:51:30.694Z,20.54
2022-10-17T00:52:31.035Z,20.54
2022-10-17T00:53:30.662Z,20.52
2022-10-17T00:54:30.708Z,20.54
2022-10-17T00:55:30.666Z,20.54
2022-10-17T00:56:30.654Z,20.52
2022-10-17T00:57:30.625Z,20.54
2022-10-17T00:58:31.563Z,20.54
2022-10-17T00:59:30.604Z,20.54
2022-10-17T01:00:30.607Z,20.54
2022-10-17T01:01:30.681Z,20.54
2022-10-17T01:02:30.847Z,20.54
2022-10-17T01:03:30.563Z,20.52
2022-10-17T01:04:30.546Z,20.52
2022-10-17T01:05:30.572Z,20.54
2022-10-17T01:06:30.542Z,20.55
2022-10-17T01:07:33.305Z,20.54
2022-10-17T01:08:31.515Z,20.52
2022-10-17T01:09:30.565Z,20.54
2022-10-17T01:10:30.498Z,20.54
2022-10-17T01:11:30.490Z,20.54
2022-10-17T01:12:30.813Z,20.54
2022-10-17T01:13:30.485Z,20.52
2022-10-17T01:14:30.472Z,20.52
2022-10-17T01:15:30.454Z,20.54
2022-10-17T01:16:30.423Z,20.52
2022-10-17T01:17:30.423Z,20.51
2022-10-17T01:18:30.407Z,20.52
2022-10-17T01:19:30.434Z,20.52
2022-10-17T01:20:30.404Z,20.55
2022-10-17T01:21:30.374Z,20.52
2022-10-17T01:22:30.615Z,20.51
2022-10-17T01:23:30.374Z,20.52
2022-10-17T01:24:30.366Z,20.52
2022-10-17T01:25:30.358Z,20.54
2022-10-17T01:26:30.356Z,20.52
2022-10-17T01:27:30.357Z,20.52
2022-10-17T01:28:30.423Z,20.52
2022-10-17T01:29:30.305Z,20.51
2022-10-17T01:30:30.282Z,20.54
2022-10-17T01:31:30.274Z,20.52
2022-10-17T01:32:30.482Z,20.52
2022-10-17T01:33:30.253Z,20.52
2022-10-17T01:34:30.243Z,20.52
2022-10-17T01:35:30.285Z,20.54
2022-10-17T01:36:30.224Z,20.52
2022-10-17T01:37:30.231Z,20.51
2022-10-17T01:38:30.225Z,20.52
2022-10-17T01:39:30.494Z,20.52
2022-10-17T01:40:30.196Z,20.52
2022-10-17T01:41:30.227Z,20.52
2022-10-17T01:42:30.625Z,20.54
2022-10-17T01:43:30.166Z,20.52
2022-10-17T01:44:30.158Z,20.51
2022-10-17T01:45:30.136Z,20.51
2022-10-17T01:46:30.135Z,20.52
2022-10-17T01:47:30.524Z,20.51
2022-10-17T01:48:30.104Z,20.51
2022-10-17T01:49:30.094Z,20.52
2022-10-17T01:50:30.085Z,20.52
2022-10-17T01:51:30.076Z,20.51
2022-10-17T01:52:30.092Z,20.52
2022-10-17T01:53:30.079Z,20.52
2022-10-17T01:54:30.046Z,20.52
2022-10-17T01:55:30.056Z,20.51
2022-10-17T01:56:30.046Z,20.51
2022-10-17T01:57:30.305Z,20.51
2022-10-17T01:58:30.009Z,20.52
2022-10-17T01:59:30.028Z,20.52
2022-10-17T02:00:29.984Z,20.52
2022-10-17T02:01:30.031Z,20.51
2022-10-17T02:02:29.975Z,20.51
2022-10-17T02:03:29.968Z,20.51
2022-10-17T02:04:29.946Z,20.51
2022-10-17T02:05:29.974Z,20.52
2022-10-17T02:06:29.926Z,20.51
2022-10-17T02:07:30.242Z,20.51
2022-10-17T02:08:29.907Z,20.51
2022-10-17T02:09:29.897Z,20.51
2022-10-17T02:10:29.895Z,20.51
2022-10-17T02:11:29.896Z,20.51
2022-10-17T02:12:29.854Z,20.50
2022-10-17T02:13:29.844Z,20.52
2022-10-17T02:14:29.845Z,20.50
2022-10-17T02:15:29.835Z,20.51
2022-10-17T02:16:29.817Z,20.50
2022-10-17T02:17:30.144Z,20.51
2022-10-17T02:18:29.806Z,20.51
2022-10-17T02:19:29.838Z,20.51
2022-10-17T02:20:29.787Z,20.50
2022-10-17T02:21:29.777Z,20.52
2022-10-17T02:22:29.777Z,20.51
2022-10-17T02:23:29.774Z,20.51
2022-10-17T02:24:29.766Z,20.51
2022-10-17T02:25:29.737Z,20.50
2022-10-17T02:26:29.746Z,20.51
2022-10-17T02:27:30.149Z,20.51
2022-10-17T02:28:29.761Z,20.50
2022-10-17T02:29:29.695Z,20.50
2022-10-17T02:30:29.675Z,20.51
2022-10-17T02:31:29.734Z,20.48
2022-10-17T02:32:29.659Z,20.51
2022-10-17T02:33:29.646Z,20.51
2022-10-17T02:34:29.657Z,20.51
2022-10-17T02:35:29.643Z,20.50
2022-10-17T02:36:29.626Z,20.48
2022-10-17T02:37:30.069Z,20.50
2022-10-17T02:38:29.607Z,20.50
2022-10-17T02:39:29.605Z,20.50
2022-10-17T02:40:29.597Z,20.51
2022-10-17T02:42:29.797Z,20.50
2022-10-17T02:43:29.547Z,20.50
2022-10-17T02:44:29.526Z,20.50
2022-10-17T02:45:29.545Z,20.50
2022-10-17T02:46:29.525Z,20.50
2022-10-17T02:47:29.550Z,20.50
2022-10-17T02:48:29.502Z,20.48
2022-10-17T02:49:29.491Z,20.50
2022-10-17T02:51:29.478Z,20.50
2022-10-17T02:52:29.642Z,20.50
2022-10-17T02:53:29.448Z,20.50
2022-10-17T02:54:29.438Z,20.48
2022-10-17T02:55:29.456Z,20.50
2022-10-17T02:56:29.447Z,20.48
2022-10-17T02:57:29.408Z,20.50
2022-10-17T02:58:29.417Z,20.48
2022-10-17T02:59:29.421Z,20.50
2022-10-17T03:00:29.387Z,20.50
2022-10-17T03:01:29.413Z,20.48
2022-10-17T03:02:29.553Z,20.50
2022-10-17T03:03:29.346Z,20.47
2022-10-17T03:04:29.386Z,20.50
2022-10-17T03:05:29.328Z,20.50
2022-10-17T03:06:29.379Z,20.48
2022-10-17T03:07:29.309Z,20.50
2022-10-17T03:08:29.363Z,20.48
2022-10-17T03:09:29.299Z,20.50
2022-10-17T03:10:29.299Z,20.50
2022-10-17T03:11:29.268Z,20.48
2022-10-17T03:12:29.480Z,20.48
2022-10-17T03:13:29.272Z,20.48
2022-10-17T03:14:29.246Z,20.47
2022-10-17T03:15:29.236Z,20.48
2022-10-17T03:16:29.257Z,20.48
2022-10-17T03:17:29.197Z,20.48
2022-10-17T03:18:29.217Z,20.48
2022-10-17T03:19:29.187Z,20.48
2022-10-17T03:20:29.176Z,20.47
2022-10-17T03:21:29.196Z,20.48
2022-10-17T03:22:29.418Z,20.50
2022-10-17T03:23:29.139Z,20.47
2022-10-17T03:24:29.149Z,20.47
2022-10-17T03:25:29.129Z,20.48
2022-10-17T03:26:29.119Z,20.48
2022-10-17T03:27:29.381Z,20.47
2022-10-17T03:28:29.134Z,20.48
2022-10-17T03:29:29.109Z,20.48
2022-10-17T03:30:29.068Z,20.50
2022-10-17T03:31:29.073Z,20.48
2022-10-17T03:32:29.047Z,20.47
2022-10-17T03:33:29.037Z,20.48
2022-10-17T03:34:29.027Z,20.48
2022-10-17T03:35:29.037Z,20.48
2022-10-17T03:36:29.009Z,20.47
2022-10-17T03:37:29.306Z,20.43
2022-10-17T03:38:29.008Z,20.48
2022-10-17T03:39:28.999Z,20.48
2022-10-17T03:40:28.971Z,20.48
2022-10-17T03:41:28.968Z,20.48
2022-10-17T03:42:28.960Z,20.48
2022-10-17T03:43:28.950Z,20.47
2022-10-17T03:44:28.940Z,20.50
2022-10-17T03:45:28.921Z,20.50
2022-10-17T03:46:28.908Z,20.48
2022-10-17T03:47:29.231Z,20.51
2022-10-17T03:48:28.908Z,20.48
2022-10-17T03:49:28.878Z,20.50
2022-10-17T03:50:28.857Z,20.50
2022-10-17T03:51:28.868Z,20.50
2022-10-17T03:52:28.857Z,20.51
2022-10-17T03:53:28.837Z,20.51
2022-10-17T03:54:28.850Z,20.52
2022-10-17T03:55:28.837Z,20.52
2022-10-17T03:56:28.810Z,20.51
2022-10-17T03:57:29.112Z,20.52
2022-10-17T03:58:28.797Z,20.52
2022-10-17T03:59:28.770Z,20.52
2022-10-17T04:00:28.826Z,20.54
2022-10-17T04:01:28.801Z,20.54
2022-10-17T04:02:28.738Z,20.52
2022-10-17T04:03:28.729Z,20.55
2022-10-17T04:04:28.728Z,20.55
2022-10-17T04:05:28.718Z,20.55
2022-10-17T04:06:28.739Z,20.54
2022-10-17T04:07:28.728Z,20.55
2022-10-17T04:08:28.682Z,20.57
2022-10-17T04:09:28.701Z,20.55
2022-10-17T04:10:28.659Z,20.57
2022-10-17T04:11:28.657Z,20.55
2022-10-17T04:12:28.992Z,20.57
2022-10-17T04:13:28.650Z,20.58
2022-10-17T04:14:28.628Z,20.58
2022-10-17T04:15:28.630Z,20.58
2022-10-17T04:16:28.628Z,20.58
2022-10-17T04:17:28.589Z,20.58
2022-10-17T04:18:28.611Z,20.59
2022-10-17T04:19:28.571Z,20.59
2022-10-17T04:20:28.571Z,20.58
2022-10-17T04:21:28.562Z,20.61
2022-10-17T04:22:28.770Z,20.59
2022-10-17T04:23:28.553Z,20.59
2022-10-17T04:24:28.560Z,20.59
2022-10-17T04:25:30.372Z,20.61
2022-10-17T04:26:28.510Z,20.61
2022-10-17T04:27:28.489Z,20.61
2022-10-17T04:28:28.672Z,20.61
2022-10-17T04:29:28.490Z,20.62
2022-10-17T04:30:28.460Z,20.62
2022-10-17T04:31:28.450Z,20.62
2022-10-17T04:32:28.793Z,20.64
2022-10-17T04:33:28.419Z,20.62
2022-10-17T04:34:28.431Z,20.66
2022-10-17T04:35:28.431Z,20.61
2022-10-17T04:36:28.430Z,20.64
2022-10-17T04:37:28.433Z,20.64
2022-10-17T04:38:28.709Z,20.64
2022-10-17T04:39:28.371Z,20.64
2022-10-17T04:40:28.391Z,20.64
2022-10-17T04:41:28.371Z,20.62
2022-10-17T04:42:28.800Z,20.64
2022-10-17T04:43:28.338Z,20.66
2022-10-17T04:44:28.338Z,20.66
2022-10-17T04:45:28.299Z,20.64
2022-10-17T04:46:28.289Z,20.67
2022-10-17T04:47:28.289Z,20.66
2022-10-17T04:48:28.280Z,20.66
2022-10-17T04:49:28.306Z,20.64
2022-10-17T04:50:28.271Z,20.67
2022-10-17T04:51:28.262Z,20.66
2022-10-17T04:52:28.563Z,20.67
2022-10-17T04:53:28.233Z,20.67
2022-10-17T04:54:28.241Z,20.66
2022-10-17T04:55:28.232Z,20.67
2022-10-17T04:56:28.199Z,20.69
2022-10-17T04:57:28.193Z,20.69
2022-10-17T04:58:28.178Z,20.67
2022-10-17T04:59:28.179Z,20.70
2022-10-17T05:00:28.178Z,20.69
2022-10-17T05:01:28.159Z,20.67
2022-10-17T05:02:28.493Z,20.70
2022-10-17T05:03:28.122Z,20.67
2022-10-17T05:04:28.141Z,20.70
2022-10-17T05:05:28.100Z,20.70
2022-10-17T05:06:28.112Z,20.72
2022-10-17T05:07:28.092Z,20.70
2022-10-17T05:08:28.073Z,20.70
2022-10-17T05:09:28.089Z,20.70
2022-10-17T05:10:28.080Z,20.70
2022-10-17T05:11:28.060Z,20.70
2022-10-17T05:12:28.300Z,20.70
2022-10-17T05:13:28.020Z,20.72
2022-10-17T05:14:28.032Z,20.73
2022-10-17T05:16:24.858Z,20.74
2022-10-17T05:17:24.889Z,20.72
2022-10-17T05:18:24.838Z,20.73
2022-10-17T05:19:24.830Z,20.73
2022-10-17T05:20:24.812Z,20.72
2022-10-17T05:21:24.850Z,20.73
2022-10-17T05:22:24.796Z,20.73
2022-10-17T05:23:24.817Z,20.74
2022-10-17T05:24:25.464Z,20.73
2022-10-17T05:25:24.776Z,20.73
2022-10-17T05:26:24.746Z,20.74
2022-10-17T05:27:24.746Z,20.74
2022-10-17T05:28:24.767Z,20.74
2022-10-17T05:29:24.736Z,20.74
2022-10-17T05:30:24.718Z,20.74
2022-10-17T05:31:24.717Z,20.76
2022-10-17T05:32:24.709Z,20.74
2022-10-17T05:33:24.699Z,20.76
2022-10-17T05:34:24.658Z,20.77
2022-10-17T05:35:24.959Z,20.76
2022-10-17T05:36:24.598Z,20.76
2022-10-17T05:37:24.679Z,20.76
2022-10-17T05:38:24.624Z,20.76
2022-10-17T05:39:24.623Z,20.76
2022-10-17T05:40:24.606Z,20.74
2022-10-17T05:41:24.647Z,20.77
2022-10-17T05:42:24.658Z,20.76
2022-10-17T05:43:24.577Z,20.74
2022-10-17T05:44:24.566Z,20.76
2022-10-17T05:45:24.572Z,20.74
2022-10-17T05:46:24.567Z,20.74
2022-10-17T05:47:24.539Z,20.74
2022-10-17T05:48:24.548Z,20.73
2022-10-17T05:49:33.841Z,20.76
2022-10-17T05:50:25.533Z,20.76
2022-10-17T05:51:24.509Z,20.74
2022-10-17T05:52:24.496Z,20.74
2022-10-17T05:53:24.477Z,20.74
2022-10-17T05:54:25.127Z,20.74
2022-10-17T05:55:24.479Z,20.74
2022-10-17T05:56:24.448Z,20.76
2022-10-17T05:57:24.412Z,20.74
2022-10-17T05:58:45.565Z,20.74
2022-10-17T05:59:25.387Z,20.74
2022-10-17T06:00:24.347Z,20.74
2022-10-17T06:01:24.421Z,20.76
2022-10-17T06:02:24.374Z,20.74
2022-10-17T06:03:24.348Z,20.74
2022-10-17T06:04:24.325Z,20.74
2022-10-17T06:05:24.319Z,20.77
2022-10-17T06:06:24.288Z,20.74
2022-10-17T06:07:24.276Z,20.76
2022-10-17T06:08:24.269Z,20.76
2022-10-17T06:09:24.267Z,20.76
2022-10-17T06:10:24.314Z,20.76
2022-10-17T06:11:24.259Z,20.76
2022-10-17T06:12:24.239Z,20.79
2022-10-17T06:13:24.229Z,20.79
2022-10-17T06:14:24.209Z,20.77
2022-10-17T06:15:24.250Z,20.80
2022-10-17T06:16:24.218Z,20.79
2022-10-17T06:17:24.187Z,20.79
2022-10-17T06:18:24.168Z,20.80
2022-10-17T06:19:24.179Z,20.82
2022-10-17T06:20:24.167Z,20.82
2022-10-17T06:21:24.138Z,20.84
2022-10-17T06:22:24.155Z,20.85
2022-10-17T06:23:24.117Z,20.85
2022-10-17T06:24:24.098Z,20.85
2022-10-17T06:25:24.101Z,20.85
2022-10-17T06:26:24.120Z,20.85
2022-10-17T06:27:24.079Z,20.87
2022-10-17T06:28:24.134Z,20.89
2022-10-17T06:29:24.060Z,20.88
2022-10-17T06:30:24.091Z,20.89
2022-10-17T06:31:24.040Z,20.89
2022-10-17T06:32:24.049Z,20.91
2022-10-17T06:33:24.007Z,20.92
2022-10-17T06:34:24.008Z,20.92
2022-10-17T06:35:24.008Z,20.94
2022-10-17T06:36:24.009Z,20.95
2022-10-17T06:37:23.966Z,20.97
2022-10-17T06:38:23.962Z,20.97
2022-10-17T06:39:23.958Z,20.99
2022-10-17T06:40:23.948Z,20.99
2022-10-17T06:41:23.951Z,21.01
2022-10-17T06:42:23.929Z,21.03
2022-10-17T06:43:27.819Z,21.04
2022-10-17T06:44:23.911Z,21.06
2022-10-17T06:45:23.899Z,21.07
2022-10-17T06:46:23.900Z,21.09
2022-10-17T06:47:23.871Z,21.12
2022-10-17T06:48:23.870Z,21.12
2022-10-17T06:49:23.859Z,21.12
2022-10-17T06:50:23.859Z,21.13
2022-10-17T06:51:23.829Z,21.16
2022-10-17T06:52:23.821Z,21.16
2022-10-17T06:53:23.809Z,21.16
2022-10-17T06:54:23.797Z,21.19
2022-10-17T06:55:23.808Z,21.17
2022-10-17T06:56:23.801Z,21.19
2022-10-17T06:57:23.781Z,21.21
2022-10-17T06:58:23.762Z,21.21
2022-10-17T06:59:23.768Z,21.24
2022-10-17T07:00:23.752Z,21.24
2022-10-17T07:01:23.749Z,21.24
2022-10-17T07:02:23.719Z,21.25
2022-10-17T07:03:23.709Z,21.28
2022-10-17T07:04:23.692Z,21.29
2022-10-17T07:05:23.691Z,21.29
2022-10-17T07:06:23.722Z,21.31
2022-10-17T07:07:23.680Z,21.31
2022-10-17T07:08:23.669Z,21.32
2022-10-17T07:09:23.652Z,21.34
2022-10-17T07:10:23.642Z,21.35
2022-10-17T07:11:23.659Z,21.37
2022-10-17T07:12:23.621Z,21.37
2022-10-17T07:13:23.611Z,21.40
2022-10-17T07:14:23.598Z,21.40
2022-10-17T07:15:23.589Z,21.40
2022-10-17T07:16:23.569Z,21.42
2022-10-17T07:17:23.609Z,21.42
2022-10-17T07:18:23.579Z,21.44
2022-10-17T07:19:23.540Z,21.44
2022-10-17T07:20:23.530Z,21.46
2022-10-17T07:21:23.549Z,21.46
2022-10-17T07:22:23.514Z,21.47
2022-10-17T07:23:23.524Z,21.47
2022-10-17T07:24:23.501Z,21.47
2022-10-17T07:25:23.494Z,21.49
2022-10-17T07:26:23.481Z,21.52
2022-10-17T07:27:23.492Z,21.53
2022-10-17T07:28:23.542Z,21.54
2022-10-17T07:29:23.471Z,21.54
2022-10-17T07:30:24.380Z,21.54
2022-10-17T07:31:23.441Z,21.58
2022-10-17T07:32:23.411Z,21.58
2022-10-17T07:33:23.400Z,21.59
2022-10-17T07:34:23.450Z,21.59
2022-10-17T07:35:23.380Z,21.61
2022-10-17T07:36:23.370Z,21.61
2022-10-17T07:37:24.330Z,21.62
2022-10-17T07:38:23.351Z,21.59
2022-10-17T07:39:23.362Z,21.58
2022-10-17T07:40:23.362Z,21.56
2022-10-17T07:41:23.340Z,21.54
2022-10-17T07:42:23.312Z,21.52
2022-10-17T07:43:23.312Z,21.50
2022-10-17T07:44:23.323Z,21.46
2022-10-17T07:45:23.293Z,21.43
2022-10-17T07:46:23.269Z,21.38
2022-10-17T07:47:23.260Z,21.37
2022-10-17T07:48:23.251Z,21.32
2022-10-17T07:49:23.260Z,21.31
2022-10-17T07:50:23.250Z,21.29
2022-10-17T07:51:23.220Z,21.25
2022-10-17T07:52:23.202Z,21.25
2022-10-17T07:53:23.231Z,21.24
2022-10-17T07:54:23.201Z,21.24
2022-10-17T07:55:23.214Z,21.22
2022-10-17T07:56:23.213Z,21.22
2022-10-17T07:57:23.186Z,21.22
2022-10-17T07:58:23.143Z,21.19
2022-10-17T07:59:23.156Z,21.22
2022-10-17T08:00:23.182Z,21.24
2022-10-17T08:01:23.122Z,21.24
2022-10-17T08:02:23.136Z,21.27
2022-10-17T08:03:23.101Z,21.29
2022-10-17T08:04:23.081Z,21.31
2022-10-17T08:05:23.081Z,21.34
2022-10-17T08:06:23.075Z,21.38
2022-10-17T08:07:28.359Z,21.40
2022-10-17T08:08:24.051Z,21.44
2022-10-17T08:09:23.044Z,21.49
2022-10-17T08:10:23.024Z,21.50
2022-10-17T08:11:23.022Z,21.53
2022-10-17T08:12:23.184Z,21.56
2022-10-17T08:13:22.994Z,21.58
2022-10-17T08:14:22.982Z,21.61
2022-10-17T08:15:24.171Z,21.65
2022-10-17T08:16:22.961Z,21.68
2022-10-17T08:17:22.984Z,21.69
2022-10-17T08:18:22.962Z,21.72
2022-10-17T08:19:22.944Z,21.74
2022-10-17T08:20:22.942Z,21.79
2022-10-17T08:21:22.944Z,21.79
2022-10-17T08:22:22.903Z,21.82
2022-10-17T08:23:22.934Z,21.83
2022-10-17T08:24:22.894Z,21.84
2022-10-17T08:25:22.913Z,21.90
2022-10-17T08:26:22.870Z,21.91
2022-10-17T08:27:22.872Z,21.91
2022-10-17T08:28:22.915Z,21.92
2022-10-17T08:29:22.849Z,21.96
2022-10-17T08:30:22.824Z,21.98
2022-10-17T08:31:22.812Z,21.99
2022-10-17T08:32:22.812Z,22.02
2022-10-17T08:33:22.792Z,22.03
2022-10-17T08:34:22.784Z,22.05
2022-10-17T08:35:22.794Z,22.05
2022-10-17T08:36:22.772Z,22.07
2022-10-17T08:37:22.817Z,22.09
2022-10-17T08:38:26.194Z,22.12
2022-10-17T08:39:22.746Z,22.12
2022-10-17T08:40:22.725Z,22.14
2022-10-17T08:41:23.362Z,22.15
2022-10-17T08:42:22.742Z,22.17
2022-10-17T08:43:22.695Z,22.18
2022-10-17T08:44:22.682Z,22.20
2022-10-17T08:45:22.673Z,22.21
2022-10-17T08:46:22.665Z,22.21
2022-10-17T08:47:22.656Z,22.22
2022-10-17T08:48:22.680Z,22.24
2022-10-17T08:49:22.634Z,22.27
2022-10-17T08:50:22.625Z,22.27
2022-10-17T08:51:22.614Z,22.30
2022-10-17T08:52:22.604Z,22.30
2022-10-17T08:53:22.614Z,22.30
2022-10-17T08:54:22.595Z,22.31
2022-10-17T08:55:22.578Z,22.33
2022-10-17T08:56:25.168Z,22.35
2022-10-17T08:57:23.553Z,22.36
2022-10-17T08:58:22.544Z,22.36
2022-10-17T08:59:22.544Z,22.39
2022-10-17T09:00:22.524Z,22.40
2022-10-17T09:01:22.509Z,22.40
2022-10-17T09:02:22.504Z,22.40
2022-10-17T09:03:22.533Z,22.43
2022-10-17T09:04:22.556Z,22.43
2022-10-17T09:05:25.564Z,22.45
2022-10-17T09:06:22.483Z,22.46
2022-10-17T09:07:22.474Z,22.47
2022-10-17T09:08:22.477Z,22.47
2022-10-17T09:09:22.429Z,22.49
2022-10-17T09:10:22.454Z,22.51
2022-10-17T09:11:22.437Z,22.52
2022-10-17T09:12:22.438Z,22.54
2022-10-17T09:13:22.395Z,22.55
2022-10-17T09:14:22.394Z,22.55
2022-10-17T09:15:22.367Z,22.55
2022-10-17T09:16:22.374Z,22.58
2022-10-17T09:17:22.475Z,22.58
2022-10-17T09:18:22.345Z,22.60
2022-10-17T09:19:22.325Z,22.60
2022-10-17T09:20:22.347Z,22.60
2022-10-17T09:21:22.315Z,22.61
2022-10-17T09:22:22.308Z,22.62
2022-10-17T09:23:22.297Z,22.60
2022-10-17T09:24:22.296Z,22.57
2022-10-17T09:25:22.276Z,22.51
2022-10-17T09:26:22.286Z,22.43
2022-10-17T09:27:22.274Z,22.36
2022-10-17T09:28:22.327Z,22.25
2022-10-17T09:29:22.247Z,22.17
2022-10-17T09:30:40.481Z,22.05
2022-10-17T09:31:23.227Z,21.98
2022-10-17T09:32:22.205Z,21.91
2022-10-17T09:33:34.630Z,21.86
2022-10-17T09:34:26.720Z,21.83
2022-10-17T09:35:22.175Z,21.80
2022-10-17T09:36:22.166Z,21.77
2022-10-17T09:37:22.197Z,21.74
2022-10-17T09:38:22.158Z,21.75
2022-10-17T09:39:22.137Z,21.75
2022-10-17T09:40:22.140Z,21.74
2022-10-17T09:42:23.118Z,21.72
2022-10-17T09:43:22.108Z,21.72
2022-10-17T09:44:22.141Z,21.74
2022-10-17T09:45:22.077Z,21.74
2022-10-17T09:46:22.057Z,21.75
2022-10-17T09:47:22.054Z,21.75
2022-10-17T09:48:22.079Z,21.79
2022-10-17T09:49:22.042Z,21.79
2022-10-17T09:50:22.016Z,21.80
2022-10-17T09:51:25.967Z,21.80
2022-10-17T09:52:21.998Z,21.80
2022-10-17T09:53:22.028Z,21.82
2022-10-17T09:54:21.991Z,21.82
2022-10-17T09:55:21.979Z,21.83
2022-10-17T09:56:21.968Z,21.84
2022-10-17T09:57:21.951Z,21.84
2022-10-17T09:58:21.967Z,21.88
2022-10-17T09:59:21.978Z,21.88
2022-10-17T10:00:21.939Z,21.90
2022-10-17T10:01:24.070Z,21.90
2022-10-17T10:02:21.897Z,21.91
2022-10-17T10:03:21.889Z,21.92
2022-10-17T10:04:21.881Z,21.92
2022-10-17T10:05:21.903Z,21.92
2022-10-17T10:06:21.907Z,21.91
2022-10-17T10:07:25.624Z,21.92
2022-10-17T10:08:22.848Z,21.92
2022-10-17T10:10:21.820Z,21.94
2022-10-17T10:11:21.829Z,21.96
2022-10-17T10:12:21.829Z,21.96
2022-10-17T10:13:21.777Z,21.98
2022-10-17T10:14:21.777Z,21.99
2022-10-17T10:15:21.777Z,22.00
2022-10-17T10:17:18.506Z,22.02
2022-10-17T10:18:18.522Z,22.02
2022-10-17T10:19:18.496Z,22.03
2022-10-17T10:20:18.475Z,22.03
2022-10-17T10:21:18.463Z,22.05
2022-10-17T10:22:18.488Z,22.02
2022-10-17T10:23:18.476Z,22.05
2022-10-17T10:24:18.446Z,22.06
2022-10-17T10:25:18.417Z,22.06
2022-10-17T10:26:20.946Z,22.06
2022-10-17T10:27:18.468Z,22.05
2022-10-17T10:28:18.419Z,22.06
2022-10-17T10:29:18.380Z,22.05
2022-10-17T10:30:18.366Z,22.06
2022-10-17T10:31:18.346Z,22.06
2022-10-17T10:32:18.346Z,22.05
2022-10-17T10:33:18.386Z,22.06
2022-10-17T10:34:18.359Z,22.06
2022-10-17T10:35:18.318Z,22.07
2022-10-17T10:36:18.359Z,22.07
2022-10-17T10:37:18.299Z,22.09
2022-10-17T10:38:18.289Z,22.10
2022-10-17T10:39:18.297Z,22.12
2022-10-17T10:40:18.268Z,22.12
2022-10-17T10:41:18.507Z,22.12
2022-10-17T10:42:18.253Z,22.15
2022-10-17T10:43:19.197Z,22.15
2022-10-17T10:44:18.248Z,22.15
2022-10-17T10:45:35.937Z,22.18
2022-10-17T10:46:19.218Z,22.18
2022-10-17T10:47:18.219Z,22.21
2022-10-17T10:48:18.188Z,22.21
2022-10-17T10:49:18.198Z,22.22
2022-10-17T10:50:18.177Z,22.24
2022-10-17T10:51:18.171Z,22.25
2022-10-17T10:52:18.151Z,22.28
2022-10-17T10:53:18.181Z,22.28
2022-10-17T10:54:18.117Z,22.30
2022-10-17T10:55:18.128Z,22.31
2022-10-17T10:56:18.130Z,22.31
2022-10-17T10:57:18.087Z,22.35
2022-10-17T10:58:18.077Z,22.36
2022-10-17T10:59:18.097Z,22.36
2022-10-17T11:00:18.078Z,22.36
2022-10-17T11:01:18.130Z,22.37
2022-10-17T11:02:18.067Z,22.36
2022-10-17T11:03:18.031Z,22.36
2022-10-17T11:04:18.029Z,22.35
2022-10-17T11:05:18.030Z,22.31
2022-10-17T11:06:18.010Z,22.27
2022-10-17T11:07:18.014Z,22.25
2022-10-17T11:08:17.994Z,22.22
2022-10-17T11:09:17.989Z,22.20
2022-10-17T11:10:17.958Z,22.20
2022-10-17T11:11:17.971Z,22.17
2022-10-17T11:12:17.938Z,22.15
2022-10-17T11:13:17.918Z,22.17
2022-10-17T11:14:17.908Z,22.15
2022-10-17T11:15:17.918Z,22.17
2022-10-17T11:16:17.909Z,22.18
2022-10-17T11:17:17.917Z,22.20
2022-10-17T11:18:17.890Z,22.20
2022-10-17T11:19:17.899Z,22.18
2022-10-17T11:20:17.921Z,22.21
2022-10-17T11:21:18.006Z,22.21
2022-10-17T11:22:17.842Z,22.22
2022-10-17T11:23:17.832Z,22.25
2022-10-17T11:24:17.839Z,22.25
2022-10-17T11:25:17.822Z,22.27
2022-10-17T11:26:17.789Z,22.30
2022-10-17T11:27:17.808Z,22.31
2022-10-17T11:28:17.779Z,22.31
2022-10-17T11:29:17.778Z,22.33
2022-10-17T11:30:17.798Z,22.35
2022-10-17T11:31:17.740Z,22.35
2022-10-17T11:32:17.758Z,22.37
2022-10-17T11:33:17.719Z,22.39
2022-10-17T11:34:17.750Z,22.37
2022-10-17T11:35:17.711Z,22.40
2022-10-17T11:36:17.761Z,22.40
2022-10-17T11:37:17.682Z,22.40
2022-10-17T11:38:17.674Z,22.40
2022-10-17T11:39:17.677Z,22.42
2022-10-17T11:40:20.438Z,22.43
2022-10-17T11:41:18.652Z,22.42
2022-10-17T11:42:17.661Z,22.43
2022-10-17T11:43:17.631Z,22.43
2022-10-17T11:44:17.622Z,22.45
2022-10-17T11:45:17.611Z,22.42
2022-10-17T11:46:17.611Z,22.45
2022-10-17T11:47:17.613Z,22.43
2022-10-17T11:48:17.574Z,22.43
2022-10-17T11:49:20.399Z,22.43
2022-10-17T11:52:37.396Z,22.43
2022-10-17T11:53:18.529Z,22.43
2022-10-17T11:54:17.535Z,22.42
2022-10-17T11:55:18.413Z,22.45
2022-10-17T11:56:17.521Z,22.42
2022-10-17T11:57:17.517Z,22.43
2022-10-17T11:58:17.585Z,22.40
2022-10-17T11:59:17.463Z,22.43
2022-10-17T12:00:17.461Z,22.43
2022-10-17T12:01:17.443Z,22.43
2022-10-17T12:02:17.442Z,22.43
2022-10-17T12:03:17.432Z,22.42
2022-10-17T12:04:17.422Z,22.43
2022-10-17T12:05:17.414Z,22.42
2022-10-17T12:06:17.401Z,22.43
2022-10-17T12:07:17.371Z,22.42
2022-10-17T12:08:17.382Z,22.42
2022-10-17T12:09:17.364Z,22.42
2022-10-17T12:10:17.350Z,22.42
2022-10-17T12:11:17.321Z,22.43
2022-10-17T12:12:17.331Z,22.40
2022-10-17T12:13:17.313Z,22.39
2022-10-17T12:14:17.322Z,22.40
2022-10-17T12:15:17.295Z,22.42
2022-10-17T12:16:17.696Z,22.40
2022-10-17T12:17:17.274Z,22.39
2022-10-17T12:18:17.272Z,22.40
2022-10-17T12:19:17.272Z,22.37
2022-10-17T12:20:17.263Z,22.37
2022-10-17T12:21:17.252Z,22.37
2022-10-17T12:22:17.220Z,22.37
2022-10-17T12:23:17.210Z,22.36
2022-10-17T12:24:18.946Z,22.36
2022-10-17T12:25:17.212Z,22.37
2022-10-17T12:26:17.181Z,22.36
2022-10-17T12:27:17.234Z,22.36
2022-10-17T12:28:17.161Z,22.35
2022-10-17T12:29:17.143Z,22.36
2022-10-17T12:30:17.161Z,22.35
2022-10-17T12:31:17.154Z,22.35
2022-10-17T12:32:17.124Z,22.36
2022-10-17T12:33:17.113Z,22.36
2022-10-17T12:34:17.135Z,22.36
2022-10-17T12:35:17.104Z,22.36
2022-10-17T12:36:17.085Z,22.36
2022-10-17T12:37:17.110Z,22.36
2022-10-17T12:38:17.165Z,22.36
2022-10-17T12:39:17.083Z,22.39
2022-10-17T12:40:17.087Z,22.37
2022-10-17T12:41:17.021Z,22.39
2022-10-17T12:42:17.034Z,22.37
2022-10-17T12:43:17.015Z,22.37
2022-10-17T12:44:17.033Z,22.39
2022-10-17T12:45:17.036Z,22.39
2022-10-17T12:46:17.002Z,22.39
2022-10-17T12:47:16.962Z,22.39
2022-10-17T12:48:16.952Z,22.39
2022-10-17T12:49:16.942Z,22.40
2022-10-17T12:50:16.933Z,22.40
2022-10-17T12:51:34.730Z,22.42
2022-10-17T12:52:17.924Z,22.42
2022-10-17T12:53:19.173Z,22.43
2022-10-17T12:54:16.895Z,22.43
2022-10-17T12:55:17.080Z,22.43
2022-10-17T12:56:16.886Z,22.45
2022-10-17T12:57:16.897Z,22.45
2022-10-17T12:58:16.876Z,22.45
2022-10-17T12:59:16.856Z,22.46
2022-10-17T13:00:16.835Z,22.46
2022-10-17T13:01:24.241Z,22.46
2022-10-17T13:02:17.834Z,22.49